sensor_id;sensor_type;location;lat;lon;timestamp;P1;durP1;ratioP1;P2;durP2;ratioP2
29380;SDS011;16364;52.490;13.326;2023-01-26T00:02:11;17.00;;;9.07;;
29380;SDS011;16364;52.490;13.326;2023-01-26T00:04:36;20.70;;;9.33;;
29380;SDS011;16364;52.490;13.326;2023-01-26T00:07:02;25.47;;;9.27;;
29380;SDS011;16364;52.490;13.326;2023-01-26T00:09:27;23.20;;;10.27;;
29380;SDS011;16364;52.490;13.326;2023-01-26T00:11:52;21.67;;;9.60;;
29380;SDS011;16364;52.490;13.326;2023-01-26T00:14:17;20.83;;;10.03;;
29380;SDS011;16364;52.490;13.326;2023-01-26T00:16:43;21.50;;;10.37;;
29380;SDS011;16364;52.490;13.326;2023-01-26T00:19:08;23.80;;;10.77;;
29380;SDS011;16364;52.490;13.326;2023-01-26T00:21:33;21.20;;;9.90;;
29380;SDS011;16364;52.490;13.326;2023-01-26T00:23:59;20.80;;;11.00;;
29380;SDS011;16364;52.490;13.326;2023-01-26T00:26:24;21.03;;;9.80;;
29380;SDS011;16364;52.490;13.326;2023-01-26T00:28:51;12.70;;;7.57;;
29380;SDS011;16364;52.490;13.326;2023-01-26T00:31:18;19.63;;;10.03;;
29380;SDS011;16364;52.490;13.326;2023-01-26T00:33:43;16.70;;;8.60;;
29380;SDS011;16364;52.490;13.326;2023-01-26T00:36:08;17.03;;;8.50;;
29380;SDS011;16364;52.490;13.326;2023-01-26T00:38:34;19.23;;;9.37;;
29380;SDS011;16364;52.490;13.326;2023-01-26T00:40:59;23.87;;;10.27;;
29380;SDS011;16364;52.490;13.326;2023-01-26T00:43:24;21.20;;;10.63;;
29380;SDS011;16364;52.490;13.326;2023-01-26T00:45:50;22.43;;;11.00;;
29380;SDS011;16364;52.490;13.326;2023-01-26T00:48:15;25.30;;;12.80;;
29380;SDS011;16364;52.490;13.326;2023-01-26T00:50:40;20.40;;;10.50;;
29380;SDS011;16364;52.490;13.326;2023-01-26T00:53:05;30.50;;;11.07;;
29380;SDS011;16364;52.490;13.326;2023-01-26T00:55:31;18.10;;;8.93;;
29380;SDS011;16364;52.490;13.326;2023-01-26T00:58:05;28.40;;;11.63;;
29380;SDS011;16364;52.490;13.326;2023-01-26T01:00:32;28.50;;;12.57;;
29380;SDS011;16364;52.490;13.326;2023-01-26T01:02:57;21.07;;;9.90;;
29380;SDS011;16364;52.490;13.326;2023-01-26T01:05:23;28.07;;;12.90;;
29380;SDS011;16364;52.490;13.326;2023-01-26T01:07:49;30.67;;;12.90;;
29380;SDS011;16364;52.490;13.326;2023-01-26T01:10:14;32.67;;;13.67;;
29380;SDS011;16364;52.490;13.326;2023-01-26T01:12:39;29.40;;;13.30;;
29380;SDS011;16364;52.490;13.326;2023-01-26T01:15:05;29.07;;;12.80;;
29380;SDS011;16364;52.490;13.326;2023-01-26T01:17:30;30.00;;;11.17;;
29380;SDS011;16364;52.490;13.326;2023-01-26T01:19:56;25.23;;;13.37;;
29380;SDS011;16364;52.490;13.326;2023-01-26T01:22:21;27.10;;;12.63;;
29380;SDS011;16364;52.490;13.326;2023-01-26T01:24:46;33.70;;;13.30;;
29380;SDS011;16364;52.490;13.326;2023-01-26T01:27:12;26.80;;;12.77;;
29380;SDS011;16364;52.490;13.326;2023-01-26T01:29:37;27.20;;;12.60;;
29380;SDS011;16364;52.490;13.326;2023-01-26T01:32:02;24.00;;;12.40;;
29380;SDS011;16364;52.490;13.326;2023-01-26T01:34:27;22.00;;;11.33;;
29380;SDS011;16364;52.490;13.326;2023-01-26T01:36:52;17.13;;;8.10;;
29380;SDS011;16364;52.490;13.326;2023-01-26T01:39:18;22.70;;;11.10;;
29380;SDS011;16364;52.490;13.326;2023-01-26T01:41:43;24.77;;;12.77;;
29380;SDS011;16364;52.490;13.326;2023-01-26T01:44:18;18.40;;;10.80;;
29380;SDS011;16364;52.490;13.326;2023-01-26T01:46:48;28.10;;;11.57;;
29380;SDS011;16364;52.490;13.326;2023-01-26T01:52:05;32.63;;;12.93;;
29380;SDS011;16364;52.490;13.326;2023-01-26T01:54:33;25.40;;;10.87;;
29380;SDS011;16364;52.490;13.326;2023-01-26T01:57:01;22.20;;;11.67;;
29380;SDS011;16364;52.490;13.326;2023-01-26T01:59:28;21.97;;;12.37;;
29380;SDS011;16364;52.490;13.326;2023-01-26T02:01:54;28.30;;;12.43;;
29380;SDS011;16364;52.490;13.326;2023-01-26T02:04:20;24.33;;;11.43;;
29380;SDS011;16364;52.490;13.326;2023-01-26T02:06:50;23.97;;;12.00;;
29380;SDS011;16364;52.490;13.326;2023-01-26T02:09:15;21.37;;;12.30;;
29380;SDS011;16364;52.490;13.326;2023-01-26T02:14:50;17.37;;;10.93;;
29380;SDS011;16364;52.490;13.326;2023-01-26T02:17:15;19.73;;;10.20;;
29380;SDS011;16364;52.490;13.326;2023-01-26T02:20:42;18.50;;;10.10;;
29380;SDS011;16364;52.490;13.326;2023-01-26T02:22:59;27.70;;;11.53;;
29380;SDS011;16364;52.490;13.326;2023-01-26T02:25:30;22.97;;;10.83;;
29380;SDS011;16364;52.490;13.326;2023-01-26T02:27:58;26.77;;;12.03;;
29380;SDS011;16364;52.490;13.326;2023-01-26T02:30:24;32.80;;;13.47;;
29380;SDS011;16364;52.490;13.326;2023-01-26T02:32:50;30.00;;;13.13;;
29380;SDS011;16364;52.490;13.326;2023-01-26T02:35:15;31.73;;;13.17;;
29380;SDS011;16364;52.490;13.326;2023-01-26T02:37:41;34.67;;;15.20;;
29380;SDS011;16364;52.490;13.326;2023-01-26T02:40:07;24.43;;;13.70;;
29380;SDS011;16364;52.490;13.326;2023-01-26T02:42:36;29.97;;;12.90;;
29380;SDS011;16364;52.490;13.326;2023-01-26T02:45:07;27.40;;;12.53;;
29380;SDS011;16364;52.490;13.326;2023-01-26T02:47:33;24.60;;;11.37;;
29380;SDS011;16364;52.490;13.326;2023-01-26T02:49:59;26.30;;;12.83;;
29380;SDS011;16364;52.490;13.326;2023-01-26T02:52:25;27.13;;;12.10;;
29380;SDS011;16364;52.490;13.326;2023-01-26T02:54:51;26.50;;;14.47;;
29380;SDS011;16364;52.490;13.326;2023-01-26T02:57:35;24.30;;;13.50;;
29380;SDS011;16364;52.490;13.326;2023-01-26T03:00:02;23.97;;;12.20;;
29380;SDS011;16364;52.490;13.326;2023-01-26T03:02:27;33.10;;;14.27;;
29380;SDS011;16364;52.490;13.326;2023-01-26T03:04:52;27.73;;;12.27;;
29380;SDS011;16364;52.490;13.326;2023-01-26T03:07:18;28.10;;;12.10;;
29380;SDS011;16364;52.490;13.326;2023-01-26T03:09:43;30.63;;;13.63;;
29380;SDS011;16364;52.490;13.326;2023-01-26T03:12:08;25.70;;;13.00;;
29380;SDS011;16364;52.490;13.326;2023-01-26T03:14:33;24.90;;;13.17;;
29380;SDS011;16364;52.490;13.326;2023-01-26T03:17:00;23.83;;;12.17;;
29380;SDS011;16364;52.490;13.326;2023-01-26T03:19:25;22.60;;;12.77;;
29380;SDS011;16364;52.490;13.326;2023-01-26T03:22:09;33.47;;;13.20;;
29380;SDS011;16364;52.490;13.326;2023-01-26T03:24:58;25.73;;;11.80;;
29380;SDS011;16364;52.490;13.326;2023-01-26T03:27:43;30.40;;;12.10;;
29380;SDS011;16364;52.490;13.326;2023-01-26T03:30:09;24.77;;;11.57;;
29380;SDS011;16364;52.490;13.326;2023-01-26T03:32:34;25.30;;;11.77;;
29380;SDS011;16364;52.490;13.326;2023-01-26T03:35:00;29.83;;;11.57;;
29380;SDS011;16364;52.490;13.326;2023-01-26T03:37:25;19.40;;;10.13;;
29380;SDS011;16364;52.490;13.326;2023-01-26T03:39:50;26.63;;;12.20;;
29380;SDS011;16364;52.490;13.326;2023-01-26T03:42:34;26.27;;;10.60;;
29380;SDS011;16364;52.490;13.326;2023-01-26T03:45:18;19.30;;;10.47;;
29380;SDS011;16364;52.490;13.326;2023-01-26T03:48:03;25.40;;;11.27;;
29380;SDS011;16364;52.490;13.326;2023-01-26T03:50:47;20.70;;;9.27;;
29380;SDS011;16364;52.490;13.326;2023-01-26T03:53:31;25.57;;;10.73;;
29380;SDS011;16364;52.490;13.326;2023-01-26T03:56:15;23.33;;;9.20;;
29380;SDS011;16364;52.490;13.326;2023-01-26T03:58:49;19.70;;;10.57;;
29380;SDS011;16364;52.490;13.326;2023-01-26T04:01:15;16.40;;;9.57;;
29380;SDS011;16364;52.490;13.326;2023-01-26T04:03:49;25.73;;;10.33;;
29380;SDS011;16364;52.490;13.326;2023-01-26T04:06:34;21.40;;;10.60;;
29380;SDS011;16364;52.490;13.326;2023-01-26T04:09:18;18.13;;;8.43;;
29380;SDS011;16364;52.490;13.326;2023-01-26T04:11:43;26.70;;;9.47;;
29380;SDS011;16364;52.490;13.326;2023-01-26T04:14:09;13.30;;;7.57;;
29380;SDS011;16364;52.490;13.326;2023-01-26T04:16:53;20.17;;;9.87;;
29380;SDS011;16364;52.490;13.326;2023-01-26T04:19:37;15.67;;;7.60;;
29380;SDS011;16364;52.490;13.326;2023-01-26T04:22:21;11.07;;;6.77;;
29380;SDS011;16364;52.490;13.326;2023-01-26T04:24:46;14.57;;;8.17;;
29380;SDS011;16364;52.490;13.326;2023-01-26T04:27:11;17.70;;;9.27;;
29380;SDS011;16364;52.490;13.326;2023-01-26T04:29:36;15.60;;;8.40;;
29380;SDS011;16364;52.490;13.326;2023-01-26T04:32:02;15.13;;;6.83;;
29380;SDS011;16364;52.490;13.326;2023-01-26T04:34:27;20.60;;;9.47;;
29380;SDS011;16364;52.490;13.326;2023-01-26T04:36:52;17.40;;;8.80;;
29380;SDS011;16364;52.490;13.326;2023-01-26T04:39:18;24.13;;;10.47;;
29380;SDS011;16364;52.490;13.326;2023-01-26T04:41:43;25.83;;;10.47;;
29380;SDS011;16364;52.490;13.326;2023-01-26T04:44:08;23.73;;;10.03;;
29380;SDS011;16364;52.490;13.326;2023-01-26T04:46:33;22.00;;;8.17;;
29380;SDS011;16364;52.490;13.326;2023-01-26T04:48:59;27.20;;;9.60;;
29380;SDS011;16364;52.490;13.326;2023-01-26T04:51:24;17.83;;;8.03;;
29380;SDS011;16364;52.490;13.326;2023-01-26T04:53:49;18.63;;;9.20;;
29380;SDS011;16364;52.490;13.326;2023-01-26T04:56:21;20.93;;;10.00;;
29380;SDS011;16364;52.490;13.326;2023-01-26T04:58:47;22.80;;;9.13;;
29380;SDS011;16364;52.490;13.326;2023-01-26T05:01:12;21.40;;;10.37;;
29380;SDS011;16364;52.490;13.326;2023-01-26T05:03:37;20.90;;;10.10;;
29380;SDS011;16364;52.490;13.326;2023-01-26T05:06:02;20.07;;;10.17;;
29380;SDS011;16364;52.490;13.326;2023-01-26T05:08:27;19.80;;;9.70;;
29380;SDS011;16364;52.490;13.326;2023-01-26T05:10:53;20.47;;;10.00;;
29380;SDS011;16364;52.490;13.326;2023-01-26T05:13:19;21.67;;;9.90;;
29380;SDS011;16364;52.490;13.326;2023-01-26T05:15:45;20.10;;;9.30;;
29380;SDS011;16364;52.490;13.326;2023-01-26T05:18:10;22.33;;;10.40;;
29380;SDS011;16364;52.490;13.326;2023-01-26T05:20:35;19.13;;;8.73;;
29380;SDS011;16364;52.490;13.326;2023-01-26T05:23:01;23.47;;;11.30;;
29380;SDS011;16364;52.490;13.326;2023-01-26T05:25:26;24.23;;;9.50;;
29380;SDS011;16364;52.490;13.326;2023-01-26T05:27:51;21.40;;;10.00;;
29380;SDS011;16364;52.490;13.326;2023-01-26T05:30:18;19.60;;;9.33;;
29380;SDS011;16364;52.490;13.326;2023-01-26T05:32:43;24.67;;;10.67;;
29380;SDS011;16364;52.490;13.326;2023-01-26T05:35:08;16.00;;;7.57;;
29380;SDS011;16364;52.490;13.326;2023-01-26T05:37:34;16.83;;;8.20;;
29380;SDS011;16364;52.490;13.326;2023-01-26T05:39:59;19.20;;;8.50;;
29380;SDS011;16364;52.490;13.326;2023-01-26T05:42:24;25.30;;;10.10;;
29380;SDS011;16364;52.490;13.326;2023-01-26T05:44:50;20.27;;;9.00;;
29380;SDS011;16364;52.490;13.326;2023-01-26T05:47:15;19.37;;;8.10;;
29380;SDS011;16364;52.490;13.326;2023-01-26T05:49:41;25.67;;;9.83;;
29380;SDS011;16364;52.490;13.326;2023-01-26T05:52:10;13.37;;;6.97;;
29380;SDS011;16364;52.490;13.326;2023-01-26T05:54:36;22.60;;;9.73;;
29380;SDS011;16364;52.490;13.326;2023-01-26T05:57:02;18.10;;;7.43;;
29380;SDS011;16364;52.490;13.326;2023-01-26T05:59:27;14.67;;;6.90;;
29380;SDS011;16364;52.490;13.326;2023-01-26T06:01:52;17.27;;;8.37;;
29380;SDS011;16364;52.490;13.326;2023-01-26T06:04:18;18.23;;;9.77;;
29380;SDS011;16364;52.490;13.326;2023-01-26T06:06:43;13.20;;;6.97;;
29380;SDS011;16364;52.490;13.326;2023-01-26T06:09:09;15.37;;;8.03;;
29380;SDS011;16364;52.490;13.326;2023-01-26T06:11:34;16.97;;;8.00;;
29380;SDS011;16364;52.490;13.326;2023-01-26T06:13:59;17.03;;;8.27;;
29380;SDS011;16364;52.490;13.326;2023-01-26T06:16:24;14.33;;;6.30;;
29380;SDS011;16364;52.490;13.326;2023-01-26T06:18:50;18.23;;;9.17;;
29380;SDS011;16364;52.490;13.326;2023-01-26T06:21:15;12.97;;;7.37;;
29380;SDS011;16364;52.490;13.326;2023-01-26T06:23:40;15.80;;;7.43;;
29380;SDS011;16364;52.490;13.326;2023-01-26T06:26:06;18.13;;;7.77;;
29380;SDS011;16364;52.490;13.326;2023-01-26T06:28:31;16.83;;;7.67;;
29380;SDS011;16364;52.490;13.326;2023-01-26T06:31:00;17.67;;;8.43;;
29380;SDS011;16364;52.490;13.326;2023-01-26T06:33:25;19.50;;;7.63;;
29380;SDS011;16364;52.490;13.326;2023-01-26T06:35:50;20.60;;;6.90;;
29380;SDS011;16364;52.490;13.326;2023-01-26T06:38:16;14.50;;;6.70;;
29380;SDS011;16364;52.490;13.326;2023-01-26T06:40:41;18.20;;;8.30;;
29380;SDS011;16364;52.490;13.326;2023-01-26T06:43:06;17.73;;;6.93;;
29380;SDS011;16364;52.490;13.326;2023-01-26T06:45:32;13.73;;;7.43;;
29380;SDS011;16364;52.490;13.326;2023-01-26T06:47:57;16.97;;;9.00;;
29380;SDS011;16364;52.490;13.326;2023-01-26T06:50:24;16.93;;;7.83;;
29380;SDS011;16364;52.490;13.326;2023-01-26T06:52:50;22.50;;;10.00;;
29380;SDS011;16364;52.490;13.326;2023-01-26T06:55:37;18.03;;;8.87;;
29380;SDS011;16364;52.490;13.326;2023-01-26T06:58:01;20.00;;;8.13;;
29380;SDS011;16364;52.490;13.326;2023-01-26T07:00:26;13.40;;;7.60;;
29380;SDS011;16364;52.490;13.326;2023-01-26T07:02:52;22.97;;;7.87;;
29380;SDS011;16364;52.490;13.326;2023-01-26T07:05:17;13.87;;;7.47;;
29380;SDS011;16364;52.490;13.326;2023-01-26T07:07:42;20.13;;;9.03;;
29380;SDS011;16364;52.490;13.326;2023-01-26T07:10:08;18.67;;;7.83;;
29380;SDS011;16364;52.490;13.326;2023-01-26T07:12:40;20.93;;;8.70;;
29380;SDS011;16364;52.490;13.326;2023-01-26T07:15:06;16.80;;;6.73;;
29380;SDS011;16364;52.490;13.326;2023-01-26T07:17:32;17.47;;;6.80;;
29380;SDS011;16364;52.490;13.326;2023-01-26T07:19:57;22.27;;;7.50;;
29380;SDS011;16364;52.490;13.326;2023-01-26T07:22:22;17.77;;;7.60;;
29380;SDS011;16364;52.490;13.326;2023-01-26T07:24:47;15.27;;;7.70;;
29380;SDS011;16364;52.490;13.326;2023-01-26T07:27:12;14.17;;;6.90;;
29380;SDS011;16364;52.490;13.326;2023-01-26T07:29:37;18.37;;;9.50;;
29380;SDS011;16364;52.490;13.326;2023-01-26T07:35:05;14.63;;;7.40;;
29380;SDS011;16364;52.490;13.326;2023-01-26T07:37:31;13.73;;;7.47;;
29380;SDS011;16364;52.490;13.326;2023-01-26T07:39:57;16.70;;;7.97;;
29380;SDS011;16364;52.490;13.326;2023-01-26T07:42:22;14.80;;;7.40;;
29380;SDS011;16364;52.490;13.326;2023-01-26T07:44:47;14.70;;;7.33;;
29380;SDS011;16364;52.490;13.326;2023-01-26T07:47:12;12.87;;;6.47;;
29380;SDS011;16364;52.490;13.326;2023-01-26T07:49:38;14.93;;;6.63;;
29380;SDS011;16364;52.490;13.326;2023-01-26T07:52:04;17.30;;;7.27;;
29380;SDS011;16364;52.490;13.326;2023-01-26T07:54:29;11.60;;;7.53;;
29380;SDS011;16364;52.490;13.326;2023-01-26T07:56:54;17.00;;;8.70;;
29380;SDS011;16364;52.490;13.326;2023-01-26T07:59:20;12.00;;;6.47;;
29380;SDS011;16364;52.490;13.326;2023-01-26T08:01:47;16.17;;;8.30;;
29380;SDS011;16364;52.490;13.326;2023-01-26T08:04:12;15.57;;;6.87;;
29380;SDS011;16364;52.490;13.326;2023-01-26T08:06:37;19.47;;;7.00;;
29380;SDS011;16364;52.490;13.326;2023-01-26T08:09:03;13.93;;;6.40;;
29380;SDS011;16364;52.490;13.326;2023-01-26T08:11:28;14.00;;;6.57;;
29380;SDS011;16364;52.490;13.326;2023-01-26T08:13:54;15.53;;;7.90;;
29380;SDS011;16364;52.490;13.326;2023-01-26T08:16:19;12.33;;;6.10;;
29380;SDS011;16364;52.490;13.326;2023-01-26T08:18:44;12.60;;;6.17;;
29380;SDS011;16364;52.490;13.326;2023-01-26T08:21:10;14.30;;;6.47;;
29380;SDS011;16364;52.490;13.326;2023-01-26T08:23:36;11.40;;;5.80;;
29380;SDS011;16364;52.490;13.326;2023-01-26T08:26:02;11.43;;;6.53;;
29380;SDS011;16364;52.490;13.326;2023-01-26T08:28:28;11.87;;;6.10;;
29380;SDS011;16364;52.490;13.326;2023-01-26T08:30:53;14.23;;;6.83;;
29380;SDS011;16364;52.490;13.326;2023-01-26T08:33:18;11.20;;;6.30;;
29380;SDS011;16364;52.490;13.326;2023-01-26T08:35:43;16.30;;;7.77;;
29380;SDS011;16364;52.490;13.326;2023-01-26T08:38:09;12.20;;;7.20;;
29380;SDS011;16364;52.490;13.326;2023-01-26T08:40:34;16.63;;;8.80;;
29380;SDS011;16364;52.490;13.326;2023-01-26T08:43:00;17.17;;;8.80;;
29380;SDS011;16364;52.490;13.326;2023-01-26T08:45:26;16.40;;;9.17;;
29380;SDS011;16364;52.490;13.326;2023-01-26T08:47:51;15.40;;;7.43;;
29380;SDS011;16364;52.490;13.326;2023-01-26T08:50:16;13.70;;;8.00;;
29380;SDS011;16364;52.490;13.326;2023-01-26T08:52:41;21.30;;;10.20;;
29380;SDS011;16364;52.490;13.326;2023-01-26T08:55:07;17.57;;;7.90;;
29380;SDS011;16364;52.490;13.326;2023-01-26T08:57:32;18.97;;;8.70;;
29380;SDS011;16364;52.490;13.326;2023-01-26T08:59:57;14.27;;;8.60;;
29380;SDS011;16364;52.490;13.326;2023-01-26T09:02:23;17.60;;;8.63;;
29380;SDS011;16364;52.490;13.326;2023-01-26T09:04:48;16.33;;;8.03;;
29380;SDS011;16364;52.490;13.326;2023-01-26T09:07:13;16.83;;;8.60;;
29380;SDS011;16364;52.490;13.326;2023-01-26T09:09:38;13.00;;;7.30;;
29380;SDS011;16364;52.490;13.326;2023-01-26T09:12:04;14.00;;;6.97;;
29380;SDS011;16364;52.490;13.326;2023-01-26T09:14:29;15.43;;;7.73;;
29380;SDS011;16364;52.490;13.326;2023-01-26T09:16:54;12.47;;;8.63;;
29380;SDS011;16364;52.490;13.326;2023-01-26T09:19:20;13.00;;;7.20;;
29380;SDS011;16364;52.490;13.326;2023-01-26T09:21:45;10.50;;;6.90;;
29380;SDS011;16364;52.490;13.326;2023-01-26T09:24:10;10.50;;;6.70;;
29380;SDS011;16364;52.490;13.326;2023-01-26T09:26:35;13.07;;;7.07;;
29380;SDS011;16364;52.490;13.326;2023-01-26T09:29:01;13.03;;;8.27;;
29380;SDS011;16364;52.490;13.326;2023-01-26T09:31:26;14.90;;;7.80;;
29380;SDS011;16364;52.490;13.326;2023-01-26T09:33:51;16.20;;;9.00;;
29380;SDS011;16364;52.490;13.326;2023-01-26T09:36:16;11.03;;;6.60;;
29380;SDS011;16364;52.490;13.326;2023-01-26T09:38:42;14.33;;;7.93;;
29380;SDS011;16364;52.490;13.326;2023-01-26T09:41:24;19.03;;;8.17;;
29380;SDS011;16364;52.490;13.326;2023-01-26T09:43:56;14.67;;;7.80;;
29380;SDS011;16364;52.490;13.326;2023-01-26T09:46:39;12.83;;;7.80;;
29380;SDS011;16364;52.490;13.326;2023-01-26T09:49:17;11.83;;;7.10;;
29380;SDS011;16364;52.490;13.326;2023-01-26T09:56:48;14.40;;;8.67;;
29380;SDS011;16364;52.490;13.326;2023-01-26T10:01:53;10.73;;;6.73;;
29380;SDS011;16364;52.490;13.326;2023-01-26T10:06:50;12.13;;;8.30;;
29380;SDS011;16364;52.490;13.326;2023-01-26T10:09:19;15.10;;;9.00;;
29380;SDS011;16364;52.490;13.326;2023-01-26T10:11:47;14.13;;;7.60;;
29380;SDS011;16364;52.490;13.326;2023-01-26T10:16:44;16.10;;;8.73;;
29380;SDS011;16364;52.490;13.326;2023-01-26T10:19:15;15.23;;;8.57;;
29380;SDS011;16364;52.490;13.326;2023-01-26T10:21:46;15.63;;;9.37;;
29380;SDS011;16364;52.490;13.326;2023-01-26T10:24:13;14.67;;;8.87;;
29380;SDS011;16364;52.490;13.326;2023-01-26T10:26:40;16.50;;;8.23;;
29380;SDS011;16364;52.490;13.326;2023-01-26T10:29:10;15.07;;;8.50;;
29380;SDS011;16364;52.490;13.326;2023-01-26T10:31:37;17.83;;;7.90;;
29380;SDS011;16364;52.490;13.326;2023-01-26T10:36:38;12.67;;;8.10;;
29380;SDS011;16364;52.490;13.326;2023-01-26T10:39:05;19.47;;;9.43;;
29380;SDS011;16364;52.490;13.326;2023-01-26T10:41:30;12.53;;;7.67;;
29380;SDS011;16364;52.490;13.326;2023-01-26T10:48:53;14.50;;;8.87;;
29380;SDS011;16364;52.490;13.326;2023-01-26T10:51:22;18.73;;;9.90;;
29380;SDS011;16364;52.490;13.326;2023-01-26T10:53:47;16.10;;;8.03;;
29380;SDS011;16364;52.490;13.326;2023-01-26T10:56:13;12.83;;;7.73;;
29380;SDS011;16364;52.490;13.326;2023-01-26T11:01:07;17.97;;;8.60;;
29380;SDS011;16364;52.490;13.326;2023-01-26T11:03:42;16.63;;;8.43;;
29380;SDS011;16364;52.490;13.326;2023-01-26T11:06:25;15.67;;;8.60;;
29380;SDS011;16364;52.490;13.326;2023-01-26T11:08:51;15.87;;;9.13;;
29380;SDS011;16364;52.490;13.326;2023-01-26T11:11:23;16.33;;;8.10;;
29380;SDS011;16364;52.490;13.326;2023-01-26T11:16:34;17.30;;;8.53;;
29380;SDS011;16364;52.490;13.326;2023-01-26T11:19:02;15.80;;;8.87;;
29380;SDS011;16364;52.490;13.326;2023-01-26T11:21:35;16.87;;;8.63;;
29380;SDS011;16364;52.490;13.326;2023-01-26T11:39:59;17.27;;;8.87;;
29380;SDS011;16364;52.490;13.326;2023-01-26T11:50:32;17.17;;;9.23;;
29380;SDS011;16364;52.490;13.326;2023-01-26T11:53:15;17.10;;;9.23;;
29380;SDS011;16364;52.490;13.326;2023-01-26T12:00:46;15.20;;;8.50;;
29380;SDS011;16364;52.490;13.326;2023-01-26T12:03:24;15.13;;;8.40;;
29380;SDS011;16364;52.490;13.326;2023-01-26T12:05:56;15.03;;;7.90;;
29380;SDS011;16364;52.490;13.326;2023-01-26T12:16:01;16.77;;;8.40;;
29380;SDS011;16364;52.490;13.326;2023-01-26T12:18:31;15.40;;;8.70;;
29380;SDS011;16364;52.490;13.326;2023-01-26T12:21:02;17.47;;;8.83;;
29380;SDS011;16364;52.490;13.326;2023-01-26T12:23:35;15.03;;;7.73;;
29380;SDS011;16364;52.490;13.326;2023-01-26T12:26:06;16.07;;;9.73;;
29380;SDS011;16364;52.490;13.326;2023-01-26T12:28:54;19.10;;;10.67;;
29380;SDS011;16364;52.490;13.326;2023-01-26T12:31:22;15.13;;;10.57;;
29380;SDS011;16364;52.490;13.326;2023-01-26T12:33:50;17.80;;;10.20;;
29380;SDS011;16364;52.490;13.326;2023-01-26T12:46:30;13.33;;;9.20;;
29380;SDS011;16364;52.490;13.326;2023-01-26T12:49:01;12.00;;;8.00;;
29380;SDS011;16364;52.490;13.326;2023-01-26T12:51:32;9.50;;;6.60;;
29380;SDS011;16364;52.490;13.326;2023-01-26T12:54:06;9.10;;;6.07;;
29380;SDS011;16364;52.490;13.326;2023-01-26T12:56:45;9.40;;;6.37;;
29380;SDS011;16364;52.490;13.326;2023-01-26T12:59:31;9.10;;;5.40;;
29380;SDS011;16364;52.490;13.326;2023-01-26T13:01:58;8.20;;;5.90;;
29380;SDS011;16364;52.490;13.326;2023-01-26T13:04:24;8.90;;;5.30;;
29380;SDS011;16364;52.490;13.326;2023-01-26T13:06:59;9.57;;;6.17;;
29380;SDS011;16364;52.490;13.326;2023-01-26T13:09:25;14.50;;;8.20;;
29380;SDS011;16364;52.490;13.326;2023-01-26T13:15:05;9.53;;;5.53;;
29380;SDS011;16364;52.490;13.326;2023-01-26T13:22:52;10.03;;;6.57;;
29380;SDS011;16364;52.490;13.326;2023-01-26T13:25:13;7.07;;;6.07;;
29380;SDS011;16364;52.490;13.326;2023-01-26T13:27:44;12.10;;;6.13;;
29380;SDS011;16364;52.490;13.326;2023-01-26T13:35:16;9.27;;;6.13;;
29380;SDS011;16364;52.490;13.326;2023-01-26T13:40:13;12.10;;;6.93;;
29380;SDS011;16364;52.490;13.326;2023-01-26T13:47:54;9.73;;;6.73;;
29380;SDS011;16364;52.490;13.326;2023-01-26T13:50:29;11.77;;;7.13;;
29380;SDS011;16364;52.490;13.326;2023-01-26T13:52:55;15.67;;;8.30;;
29380;SDS011;16364;52.490;13.326;2023-01-26T13:55:22;12.23;;;7.00;;
29380;SDS011;16364;52.490;13.326;2023-01-26T13:57:48;13.23;;;8.30;;
29380;SDS011;16364;52.490;13.326;2023-01-26T14:00:14;10.87;;;8.03;;
29380;SDS011;16364;52.490;13.326;2023-01-26T14:02:39;10.67;;;7.43;;
29380;SDS011;16364;52.490;13.326;2023-01-26T14:05:04;11.70;;;7.40;;
29380;SDS011;16364;52.490;13.326;2023-01-26T14:07:31;10.30;;;7.27;;
29380;SDS011;16364;52.490;13.326;2023-01-26T14:09:58;13.63;;;8.23;;
29380;SDS011;16364;52.490;13.326;2023-01-26T14:12:32;13.97;;;8.53;;
29380;SDS011;16364;52.490;13.326;2023-01-26T14:14:58;13.17;;;7.83;;
29380;SDS011;16364;52.490;13.326;2023-01-26T14:19:49;18.80;;;10.20;;
29380;SDS011;16364;52.490;13.326;2023-01-26T14:22:15;17.57;;;10.30;;
29380;SDS011;16364;52.490;13.326;2023-01-26T14:24:41;17.30;;;9.57;;
29380;SDS011;16364;52.490;13.326;2023-01-26T14:29:48;14.90;;;8.83;;
29380;SDS011;16364;52.490;13.326;2023-01-26T14:32:14;16.17;;;9.70;;
29380;SDS011;16364;52.490;13.326;2023-01-26T14:34:49;15.90;;;9.20;;
29380;SDS011;16364;52.490;13.326;2023-01-26T14:37:15;14.47;;;8.50;;
29380;SDS011;16364;52.490;13.326;2023-01-26T14:39:41;13.03;;;8.13;;
29380;SDS011;16364;52.490;13.326;2023-01-26T14:42:18;19.70;;;8.40;;
29380;SDS011;16364;52.490;13.326;2023-01-26T14:44:44;16.37;;;9.47;;
29380;SDS011;16364;52.490;13.326;2023-01-26T14:47:28;15.73;;;9.03;;
29380;SDS011;16364;52.490;13.326;2023-01-26T14:50:00;15.50;;;8.40;;
29380;SDS011;16364;52.490;13.326;2023-01-26T14:52:27;18.13;;;8.83;;
29380;SDS011;16364;52.490;13.326;2023-01-26T14:54:54;18.17;;;8.67;;
29380;SDS011;16364;52.490;13.326;2023-01-26T14:57:21;22.57;;;10.90;;
29380;SDS011;16364;52.490;13.326;2023-01-26T14:59:47;15.37;;;8.93;;
29380;SDS011;16364;52.490;13.326;2023-01-26T15:04:43;24.13;;;12.23;;
29380;SDS011;16364;52.490;13.326;2023-01-26T15:09:53;19.67;;;10.50;;
29380;SDS011;16364;52.490;13.326;2023-01-26T15:12:19;18.60;;;10.40;;
29380;SDS011;16364;52.490;13.326;2023-01-26T15:17:25;15.57;;;9.07;;
29380;SDS011;16364;52.490;13.326;2023-01-26T15:19:50;18.20;;;10.17;;
29380;SDS011;16364;52.490;13.326;2023-01-26T15:22:17;20.40;;;10.00;;
29380;SDS011;16364;52.490;13.326;2023-01-26T15:24:43;18.50;;;10.80;;
29380;SDS011;16364;52.490;13.326;2023-01-26T15:27:10;18.50;;;9.90;;
29380;SDS011;16364;52.490;13.326;2023-01-26T15:29:36;16.50;;;9.17;;
29380;SDS011;16364;52.490;13.326;2023-01-26T15:32:01;15.67;;;8.30;;
29380;SDS011;16364;52.490;13.326;2023-01-26T15:36:58;17.87;;;9.83;;
29380;SDS011;16364;52.490;13.326;2023-01-26T15:39:24;21.27;;;10.00;;
29380;SDS011;16364;52.490;13.326;2023-01-26T15:44:52;18.70;;;9.23;;
29380;SDS011;16364;52.490;13.326;2023-01-26T15:47:17;21.50;;;9.80;;
29380;SDS011;16364;52.490;13.326;2023-01-26T15:49:43;20.87;;;10.10;;
29380;SDS011;16364;52.490;13.326;2023-01-26T15:52:12;19.60;;;10.37;;
29380;SDS011;16364;52.490;13.326;2023-01-26T15:54:38;22.50;;;10.67;;
29380;SDS011;16364;52.490;13.326;2023-01-26T15:57:03;21.07;;;10.90;;
29380;SDS011;16364;52.490;13.326;2023-01-26T15:59:28;19.40;;;10.43;;
29380;SDS011;16364;52.490;13.326;2023-01-26T16:01:54;17.03;;;8.90;;
29380;SDS011;16364;52.490;13.326;2023-01-26T16:04:19;22.30;;;10.70;;
29380;SDS011;16364;52.490;13.326;2023-01-26T16:06:45;22.67;;;11.10;;
29380;SDS011;16364;52.490;13.326;2023-01-26T16:09:10;27.27;;;11.27;;
29380;SDS011;16364;52.490;13.326;2023-01-26T16:11:36;21.53;;;11.90;;
29380;SDS011;16364;52.490;13.326;2023-01-26T16:14:05;17.57;;;10.30;;
29380;SDS011;16364;52.490;13.326;2023-01-26T16:16:31;20.90;;;9.83;;
29380;SDS011;16364;52.490;13.326;2023-01-26T16:18:57;19.40;;;9.97;;
29380;SDS011;16364;52.490;13.326;2023-01-26T16:21:23;23.70;;;11.60;;
29380;SDS011;16364;52.490;13.326;2023-01-26T16:23:49;22.90;;;10.57;;